sensor_id;sensor_type;location;lat;lon;timestamp;pressure;altitude;pressure_sealevel;temperature;humidity
5777;BME280;2914;42.668;23.346;2023-04-25T00:00:10;93786.49;;;13.74;100.00
5777;BME280;2914;42.668;23.346;2023-04-25T00:02:39;93777.95;;;13.83;100.00
5777;BME280;2914;42.668;23.346;2023-04-25T00:05:09;93776.33;;;13.78;100.00
5777;BME280;2914;42.668;23.346;2023-04-25T00:07:38;93766.07;;;13.40;100.00
5777;BME280;2914;42.668;23.346;2023-04-25T00:10:11;93762.13;;;13.36;100.00
5777;BME280;2914;42.668;23.346;2023-04-25T00:12:40;93753.70;;;13.37;100.00
5777;BME280;2914;42.668;23.346;2023-04-25T00:15:11;93750.20;;;13.13;100.00
5777;BME280;2914;42.668;23.346;2023-04-25T00:17:40;93739.08;;;12.71;100.00
5777;BME280;2914;42.668;23.346;2023-04-25T00:20:13;93737.29;;;12.41;100.00
5777;BME280;2914;42.668;23.346;2023-04-25T00:22:43;93729.75;;;12.21;100.00
5777;BME280;2914;42.668;23.346;2023-04-25T00:25:12;93727.92;;;12.30;100.00
5777;BME280;2914;42.668;23.346;2023-04-25T00:27:41;93716.52;;;12.25;100.00
5777;BME280;2914;42.668;23.346;2023-04-25T00:30:12;93731.09;;;12.17;100.00
5777;BME280;2914;42.668;23.346;2023-04-25T00:32:41;93729.66;;;12.02;100.00
5777;BME280;2914;42.668;23.346;2023-04-25T00:35:11;93718.11;;;12.03;100.00
5777;BME280;2914;42.668;23.346;2023-04-25T00:37:40;93718.79;;;11.93;100.00
5777;BME280;2914;42.668;23.346;2023-04-25T00:40:10;93724.54;;;12.04;100.00
5777;BME280;2914;42.668;23.346;2023-04-25T00:42:40;93719.61;;;11.89;100.00
5777;BME280;2914;42.668;23.346;2023-04-25T00:45:12;93721.72;;;12.06;100.00
5777;BME280;2914;42.668;23.346;2023-04-25T00:47:42;93715.92;;;11.50;100.00
5777;BME280;2914;42.668;23.346;2023-04-25T00:50:12;93712.82;;;11.22;100.00
5777;BME280;2914;42.668;23.346;2023-04-25T00:55:21;93708.83;;;11.43;100.00
5777;BME280;2914;42.668;23.346;2023-04-25T00:57:50;93706.13;;;11.71;100.00
5777;BME280;2914;42.668;23.346;2023-04-25T01:00:20;93706.56;;;11.92;100.00
5777;BME280;2914;42.668;23.346;2023-04-25T01:02:49;93709.14;;;12.16;100.00
5777;BME280;2914;42.668;23.346;2023-04-25T01:05:21;93716.45;;;12.37;100.00
5777;BME280;2914;42.668;23.346;2023-04-25T01:07:51;93711.71;;;12.60;100.00
5777;BME280;2914;42.668;23.346;2023-04-25T01:10:20;93704.98;;;12.77;100.00
5777;BME280;2914;42.668;23.346;2023-04-25T01:12:49;93699.28;;;12.88;100.00
5777;BME280;2914;42.668;23.346;2023-04-25T01:15:18;93686.75;;;13.01;100.00
5777;BME280;2914;42.668;23.346;2023-04-25T01:17:47;93686.17;;;13.14;100.00
5777;BME280;2914;42.668;23.346;2023-04-25T01:20:16;93680.78;;;12.84;100.00
5777;BME280;2914;42.668;23.346;2023-04-25T01:22:46;93667.84;;;12.89;100.00
5777;BME280;2914;42.668;23.346;2023-04-25T01:25:15;93675.98;;;13.06;100.00
5777;BME280;2914;42.668;23.346;2023-04-25T01:27:44;93680.33;;;13.18;100.00
5777;BME280;2914;42.668;23.346;2023-04-25T01:32:52;93669.22;;;13.04;100.00
5777;BME280;2914;42.668;23.346;2023-04-25T01:35:21;93665.36;;;12.68;100.00
5777;BME280;2914;42.668;23.346;2023-04-25T01:37:52;93659.41;;;12.66;100.00
5777;BME280;2914;42.668;23.346;2023-04-25T01:40:22;93675.34;;;12.81;100.00
5777;BME280;2914;42.668;23.346;2023-04-25T01:42:53;93678.22;;;12.95;100.00
5777;BME280;2914;42.668;23.346;2023-04-25T01:45:22;93677.74;;;12.91;100.00
5777;BME280;2914;42.668;23.346;2023-04-25T01:47:51;93681.28;;;13.06;100.00
5777;BME280;2914;42.668;23.346;2023-04-25T01:50:20;93680.69;;;13.15;100.00
5777;BME280;2914;42.668;23.346;2023-04-25T01:52:49;93682.34;;;13.16;100.00
5777;BME280;2914;42.668;23.346;2023-04-25T01:55:18;93682.76;;;13.24;100.00
5777;BME280;2914;42.668;23.346;2023-04-25T01:57:47;93696.77;;;13.33;100.00
5777;BME280;2914;42.668;23.346;2023-04-25T02:00:17;93695.73;;;13.38;100.00
5777;BME280;2914;42.668;23.346;2023-04-25T02:02:46;93698.19;;;13.44;100.00
5777;BME280;2914;42.668;23.346;2023-04-25T02:05:16;93691.52;;;13.48;100.00
5777;BME280;2914;42.668;23.346;2023-04-25T02:07:49;93686.52;;;13.49;100.00
5777;BME280;2914;42.668;23.346;2023-04-25T02:10:17;93677.25;;;13.49;100.00
5777;BME280;2914;42.668;23.346;2023-04-25T02:12:47;93679.72;;;13.50;100.00
5777;BME280;2914;42.668;23.346;2023-04-25T02:15:16;93677.06;;;13.50;100.00
5777;BME280;2914;42.668;23.346;2023-04-25T02:17:45;93670.38;;;13.44;100.00
5777;BME280;2914;42.668;23.346;2023-04-25T02:20:15;93668.67;;;13.47;100.00
5777;BME280;2914;42.668;23.346;2023-04-25T02:22:44;93678.03;;;13.38;100.00
5777;BME280;2914;42.668;23.346;2023-04-25T02:25:13;93665.92;;;13.40;100.00
5777;BME280;2914;42.668;23.346;2023-04-25T02:27:43;93653.82;;;13.42;100.00
5777;BME280;2914;42.668;23.346;2023-04-25T02:30:14;93651.79;;;13.48;100.00
5777;BME280;2914;42.668;23.346;2023-04-25T02:32:43;93645.16;;;13.48;100.00
5777;BME280;2914;42.668;23.346;2023-04-25T02:35:12;93652.27;;;13.47;100.00
5777;BME280;2914;42.668;23.346;2023-04-25T02:37:41;93653.11;;;13.48;100.00
5777;BME280;2914;42.668;23.346;2023-04-25T02:40:11;93642.14;;;13.51;100.00
5777;BME280;2914;42.668;23.346;2023-04-25T02:42:40;93642.52;;;13.48;100.00
5777;BME280;2914;42.668;23.346;2023-04-25T02:45:11;93640.81;;;13.51;100.00
5777;BME280;2914;42.668;23.346;2023-04-25T02:47:40;93643.55;;;13.43;100.00
5777;BME280;2914;42.668;23.346;2023-04-25T02:50:09;93653.82;;;13.42;100.00
5777;BME280;2914;42.668;23.346;2023-04-25T02:52:38;93641.09;;;13.41;100.00
5777;BME280;2914;42.668;23.346;2023-04-25T02:55:09;93636.28;;;13.40;100.00
5777;BME280;2914;42.668;23.346;2023-04-25T02:57:39;93632.30;;;13.40;100.00
5777;BME280;2914;42.668;23.346;2023-04-25T03:00:13;93624.36;;;13.40;100.00
5777;BME280;2914;42.668;23.346;2023-04-25T03:02:42;93630.90;;;13.15;100.00
5777;BME280;2914;42.668;23.346;2023-04-25T03:05:11;93626.66;;;13.24;100.00
5777;BME280;2914;42.668;23.346;2023-04-25T03:07:40;93628.57;;;13.31;100.00
5777;BME280;2914;42.668;23.346;2023-04-25T03:10:11;93624.41;;;13.32;100.00
5777;BME280;2914;42.668;23.346;2023-04-25T03:12:41;93620.28;;;13.00;100.00
5777;BME280;2914;42.668;23.346;2023-04-25T03:15:10;93621.27;;;12.99;100.00
5777;BME280;2914;42.668;23.346;2023-04-25T03:17:39;93622.16;;;13.10;100.00
5777;BME280;2914;42.668;23.346;2023-04-25T03:20:11;93624.13;;;13.12;100.00
5777;BME280;2914;42.668;23.346;2023-04-25T03:22:40;93631.02;;;13.02;100.00
5777;BME280;2914;42.668;23.346;2023-04-25T03:25:09;93625.60;;;13.15;100.00
5777;BME280;2914;42.668;23.346;2023-04-25T03:27:38;93622.08;;;13.18;100.00
5777;BME280;2914;42.668;23.346;2023-04-25T03:30:09;93619.71;;;13.23;100.00
5777;BME280;2914;42.668;23.346;2023-04-25T03:32:39;93621.66;;;13.26;100.00
5777;BME280;2914;42.668;23.346;2023-04-25T03:35:09;93621.18;;;13.26;100.00
5777;BME280;2914;42.668;23.346;2023-04-25T03:37:38;93615.98;;;13.33;100.00
5777;BME280;2914;42.668;23.346;2023-04-25T03:40:10;93614.52;;;13.30;100.00
5777;BME280;2914;42.668;23.346;2023-04-25T03:42:39;93621.47;;;13.31;100.00
5777;BME280;2914;42.668;23.346;2023-04-25T03:45:09;93623.83;;;13.26;100.00
5777;BME280;2914;42.668;23.346;2023-04-25T03:47:38;93620.85;;;13.25;100.00
5777;BME280;2914;42.668;23.346;2023-04-25T03:52:46;93623.41;;;13.37;100.00
5777;BME280;2914;42.668;23.346;2023-04-25T03:55:15;93626.56;;;13.37;100.00
5777;BME280;2914;42.668;23.346;2023-04-25T03:57:44;93603.48;;;12.88;100.00
5777;BME280;2914;42.668;23.346;2023-04-25T04:00:15;93616.64;;;12.97;100.00
5777;BME280;2914;42.668;23.346;2023-04-25T04:02:44;93612.77;;;12.69;100.00
5777;BME280;2914;42.668;23.346;2023-04-25T04:05:13;93609.11;;;12.89;100.00
5777;BME280;2914;42.668;23.346;2023-04-25T04:07:42;93618.84;;;13.12;100.00
5777;BME280;2914;42.668;23.346;2023-04-25T04:10:11;93617.65;;;13.30;100.00
5777;BME280;2914;42.668;23.346;2023-04-25T04:12:40;93626.77;;;13.31;100.00
5777;BME280;2914;42.668;23.346;2023-04-25T04:15:11;93635.28;;;13.42;100.00
5777;BME280;2914;42.668;23.346;2023-04-25T04:17:40;93630.98;;;13.55;100.00
5777;BME280;2914;42.668;23.346;2023-04-25T04:20:12;93634.73;;;13.61;100.00
5777;BME280;2914;42.668;23.346;2023-04-25T04:22:41;93628.76;;;13.63;100.00
5777;BME280;2914;42.668;23.346;2023-04-25T04:25:10;93633.88;;;13.65;100.00
5777;BME280;2914;42.668;23.346;2023-04-25T04:27:39;93633.16;;;13.82;100.00
5777;BME280;2914;42.668;23.346;2023-04-25T04:30:10;93631.73;;;13.64;100.00
5777;BME280;2914;42.668;23.346;2023-04-25T04:32:39;93633.78;;;13.58;100.00
5777;BME280;2914;42.668;23.346;2023-04-25T04:35:10;93632.01;;;13.39;100.00
5777;BME280;2914;42.668;23.346;2023-04-25T04:37:39;93632.86;;;13.36;100.00
5777;BME280;2914;42.668;23.346;2023-04-25T04:40:10;93623.13;;;13.47;100.00
5777;BME280;2914;42.668;23.346;2023-04-25T04:42:39;93626.71;;;13.39;100.00
5777;BME280;2914;42.668;23.346;2023-04-25T04:45:10;93622.95;;;13.30;100.00
5777;BME280;2914;42.668;23.346;2023-04-25T04:47:40;93628.72;;;13.33;100.00
5777;BME280;2914;42.668;23.346;2023-04-25T04:50:11;93624.02;;;13.44;100.00
5777;BME280;2914;42.668;23.346;2023-04-25T04:52:40;93624.03;;;13.69;100.00
5777;BME280;2914;42.668;23.346;2023-04-25T04:55:10;93632.55;;;13.65;100.00
5777;BME280;2914;42.668;23.346;2023-04-25T05:00:17;93644.84;;;13.47;100.00
5777;BME280;2914;42.668;23.346;2023-04-25T05:02:46;93643.66;;;13.49;100.00
5777;BME280;2914;42.668;23.346;2023-04-25T05:05:15;93643.86;;;13.58;100.00
5777;BME280;2914;42.668;23.346;2023-04-25T05:07:45;93646.36;;;13.60;100.00
5777;BME280;2914;42.668;23.346;2023-04-25T05:10:14;93647.98;;;13.61;100.00
5777;BME280;2914;42.668;23.346;2023-04-25T05:12:43;93654.05;;;13.36;100.00
5777;BME280;2914;42.668;23.346;2023-04-25T05:15:12;93658.59;;;13.27;100.00
5777;BME280;2914;42.668;23.346;2023-04-25T05:17:41;93658.83;;;13.36;100.00
5777;BME280;2914;42.668;23.346;2023-04-25T05:20:13;93655.66;;;13.41;100.00
5777;BME280;2914;42.668;23.346;2023-04-25T05:22:42;93665.28;;;13.53;100.00
5777;BME280;2914;42.668;23.346;2023-04-25T05:25:12;93659.84;;;13.50;100.00
5777;BME280;2914;42.668;23.346;2023-04-25T05:27:41;93655.61;;;13.26;100.00
5777;BME280;2914;42.668;23.346;2023-04-25T05:30:11;93651.30;;;13.25;100.00
5777;BME280;2914;42.668;23.346;2023-04-25T05:32:40;93647.58;;;13.34;100.00
5777;BME280;2914;42.668;23.346;2023-04-25T05:35:10;93649.56;;;13.36;100.00
5777;BME280;2914;42.668;23.346;2023-04-25T05:37:39;93656.66;;;13.40;100.00
5777;BME280;2914;42.668;23.346;2023-04-25T05:40:09;93650.94;;;13.28;100.00
5777;BME280;2914;42.668;23.346;2023-04-25T05:42:39;93656.19;;;13.36;100.00
5777;BME280;2914;42.668;23.346;2023-04-25T05:45:09;93660.48;;;13.37;100.00
5777;BME280;2914;42.668;23.346;2023-04-25T05:47:38;93655.11;;;13.46;100.00
5777;BME280;2914;42.668;23.346;2023-04-25T05:50:09;93653.06;;;13.52;100.00
5777;BME280;2914;42.668;23.346;2023-04-25T05:52:38;93649.67;;;13.58;100.00
5777;BME280;2914;42.668;23.346;2023-04-25T05:55:09;93655.48;;;13.43;100.00
5777;BME280;2914;42.668;23.346;2023-04-25T05:57:38;93664.09;;;13.40;100.00
5777;BME280;2914;42.668;23.346;2023-04-25T06:00:11;93658.52;;;13.50;100.00
5777;BME280;2914;42.668;23.346;2023-04-25T06:02:40;93663.62;;;13.56;100.00
5777;BME280;2914;42.668;23.346;2023-04-25T06:05:10;93664.06;;;13.60;100.00
5777;BME280;2914;42.668;23.346;2023-04-25T06:07:39;93664.86;;;13.64;100.00
5777;BME280;2914;42.668;23.346;2023-04-25T06:12:53;93657.67;;;13.16;100.00
5777;BME280;2914;42.668;23.346;2023-04-25T06:15:22;93655.17;;;12.99;100.00
5777;BME280;2914;42.668;23.346;2023-04-25T06:17:51;93658.52;;;12.97;100.00
5777;BME280;2914;42.668;23.346;2023-04-25T06:20:20;93659.41;;;13.09;100.00
5777;BME280;2914;42.668;23.346;2023-04-25T06:22:51;93660.06;;;13.26;100.00
5777;BME280;2914;42.668;23.346;2023-04-25T06:25:21;93658.49;;;13.39;100.00
5777;BME280;2914;42.668;23.346;2023-04-25T06:27:50;93663.75;;;13.44;100.00
5777;BME280;2914;42.668;23.346;2023-04-25T06:30:19;93659.89;;;13.46;100.00
5777;BME280;2914;42.668;23.346;2023-04-25T06:32:49;93670.53;;;13.42;100.00
5777;BME280;2914;42.668;23.346;2023-04-25T06:35:18;93672.23;;;13.54;98.79
5777;BME280;2914;42.668;23.346;2023-04-25T06:37:48;93664.63;;;13.70;98.27
5777;BME280;2914;42.668;23.346;2023-04-25T06:40:17;93669.70;;;13.22;99.58
5777;BME280;2914;42.668;23.346;2023-04-25T06:42:46;93672.78;;;13.30;100.00
5777;BME280;2914;42.668;23.346;2023-04-25T06:45:15;93664.86;;;13.64;100.00
5777;BME280;2914;42.668;23.346;2023-04-25T06:47:44;93668.53;;;13.44;100.00
5777;BME280;2914;42.668;23.346;2023-04-25T06:50:13;93673.11;;;13.65;100.00
5777;BME280;2914;42.668;23.346;2023-04-25T06:52:42;93675.70;;;13.54;100.00
5777;BME280;2914;42.668;23.346;2023-04-25T06:55:11;93674.20;;;13.71;99.50
5777;BME280;2914;42.668;23.346;2023-04-25T06:57:40;93675.34;;;13.43;100.00
5777;BME280;2914;42.668;23.346;2023-04-25T07:00:11;93680.44;;;13.78;98.50
5777;BME280;2914;42.668;23.346;2023-04-25T07:02:40;93671.39;;;13.72;98.81
5777;BME280;2914;42.668;23.346;2023-04-25T07:05:11;93674.81;;;13.77;98.43
5777;BME280;2914;42.668;23.346;2023-04-25T07:07:40;93672.20;;;13.88;97.88
5777;BME280;2914;42.668;23.346;2023-04-25T07:10:09;93671.25;;;13.85;97.55
5777;BME280;2914;42.668;23.346;2023-04-25T07:12:38;93675.75;;;13.65;98.38
5777;BME280;2914;42.668;23.346;2023-04-25T07:15:09;93674.63;;;13.79;97.24
5777;BME280;2914;42.668;23.346;2023-04-25T07:17:39;93676.13;;;13.92;97.43
5777;BME280;2914;42.668;23.346;2023-04-25T07:20:09;93673.23;;;14.13;95.67
5777;BME280;2914;42.668;23.346;2023-04-25T07:22:39;93676.29;;;14.31;94.21
5777;BME280;2914;42.668;23.346;2023-04-25T07:25:09;93678.80;;;14.18;94.10
5777;BME280;2914;42.668;23.346;2023-04-25T07:27:38;93673.61;;;14.10;95.35
5777;BME280;2914;42.668;23.346;2023-04-25T07:30:10;93680.32;;;14.27;95.15
5777;BME280;2914;42.668;23.346;2023-04-25T07:32:40;93674.37;;;13.99;95.48
5777;BME280;2914;42.668;23.346;2023-04-25T07:35:09;93665.11;;;13.84;97.53
5777;BME280;2914;42.668;23.346;2023-04-25T07:37:38;93664.25;;;13.58;97.91
5777;BME280;2914;42.668;23.346;2023-04-25T07:40:09;93663.83;;;13.95;96.41
5777;BME280;2914;42.668;23.346;2023-04-25T07:42:38;93663.72;;;14.03;95.38
5777;BME280;2914;42.668;23.346;2023-04-25T07:45:09;93666.92;;;14.24;95.29
5777;BME280;2914;42.668;23.346;2023-04-25T07:47:38;93665.56;;;14.39;93.94
5777;BME280;2914;42.668;23.346;2023-04-25T07:50:09;93661.06;;;14.55;92.79
5777;BME280;2914;42.668;23.346;2023-04-25T07:52:39;93660.35;;;14.57;91.85
5777;BME280;2914;42.668;23.346;2023-04-25T07:55:09;93657.09;;;14.66;91.37
5777;BME280;2914;42.668;23.346;2023-04-25T08:00:17;93661.73;;;14.79;88.97
5777;BME280;2914;42.668;23.346;2023-04-25T08:02:46;93658.76;;;14.52;90.71
5777;BME280;2914;42.668;23.346;2023-04-25T08:05:15;93654.03;;;14.47;91.27
5777;BME280;2914;42.668;23.346;2023-04-25T08:07:44;93651.05;;;14.46;92.59
5777;BME280;2914;42.668;23.346;2023-04-25T08:10:13;93655.54;;;14.71;92.86
5777;BME280;2914;42.668;23.346;2023-04-25T08:12:42;93652.23;;;14.91;91.77
5777;BME280;2914;42.668;23.346;2023-04-25T08:15:12;93651.31;;;15.16;91.22
5777;BME280;2914;42.668;23.346;2023-04-25T08:17:42;93652.61;;;15.38;91.16
5777;BME280;2914;42.668;23.346;2023-04-25T08:20:13;93653.00;;;15.35;88.03
5777;BME280;2914;42.668;23.346;2023-04-25T08:22:42;93643.04;;;15.43;84.69
5777;BME280;2914;42.668;23.346;2023-04-25T08:25:11;93640.23;;;15.52;83.04
5777;BME280;2914;42.668;23.346;2023-04-25T08:27:40;93636.02;;;15.64;82.18
5777;BME280;2914;42.668;23.346;2023-04-25T08:30:10;93629.84;;;15.74;82.11
5777;BME280;2914;42.668;23.346;2023-04-25T08:32:39;93637.38;;;15.71;80.35
5777;BME280;2914;42.668;23.346;2023-04-25T08:37:47;93628.50;;;15.39;78.13
5777;BME280;2914;42.668;23.346;2023-04-25T08:40:17;93632.34;;;15.48;79.20
5777;BME280;2914;42.668;23.346;2023-04-25T08:42:50;93640.89;;;15.60;80.78
5777;BME280;2914;42.668;23.346;2023-04-25T08:45:19;93635.73;;;15.70;81.39
5777;BME280;2914;42.668;23.346;2023-04-25T08:47:49;93642.55;;;15.79;82.91
5777;BME280;2914;42.668;23.346;2023-04-25T08:50:20;93645.08;;;15.76;81.87
5777;BME280;2914;42.668;23.346;2023-04-25T08:52:51;93644.55;;;15.70;82.18
5777;BME280;2914;42.668;23.346;2023-04-25T08:58:00;93645.47;;;15.84;87.46
5777;BME280;2914;42.668;23.346;2023-04-25T09:00:30;93644.34;;;15.83;89.40
5777;BME280;2914;42.668;23.346;2023-04-25T09:02:59;93643.20;;;15.53;88.45
5777;BME280;2914;42.668;23.346;2023-04-25T09:05:29;93625.00;;;15.50;90.29
5777;BME280;2914;42.668;23.346;2023-04-25T09:07:58;93618.12;;;15.62;90.28
5777;BME280;2914;42.668;23.346;2023-04-25T09:10:28;93632.90;;;15.54;89.65
5777;BME280;2914;42.668;23.346;2023-04-25T09:13:04;93628.39;;;15.54;89.02
5777;BME280;2914;42.668;23.346;2023-04-25T09:15:34;93625.78;;;15.61;84.38
5777;BME280;2914;42.668;23.346;2023-04-25T09:18:04;93615.40;;;15.73;83.34
5777;BME280;2914;42.668;23.346;2023-04-25T09:23:15;93615.11;;;16.14;81.40
5777;BME280;2914;42.668;23.346;2023-04-25T09:25:44;93610.33;;;16.20;79.33
5777;BME280;2914;42.668;23.346;2023-04-25T09:28:15;93607.36;;;16.19;78.58
5777;BME280;2914;42.668;23.346;2023-04-25T09:33:30;93607.00;;;16.35;77.97
5777;BME280;2914;42.668;23.346;2023-04-25T09:36:04;93611.30;;;16.36;78.87
5777;BME280;2914;42.668;23.346;2023-04-25T09:38:41;93608.93;;;16.37;79.31
5777;BME280;2914;42.668;23.346;2023-04-25T09:41:11;93612.25;;;16.46;79.94
5777;BME280;2914;42.668;23.346;2023-04-25T09:43:40;93605.70;;;16.49;80.53
5777;BME280;2914;42.668;23.346;2023-04-25T09:46:11;93605.39;;;16.17;81.16
5777;BME280;2914;42.668;23.346;2023-04-25T09:48:41;93602.87;;;16.26;81.32
5777;BME280;2914;42.668;23.346;2023-04-25T09:51:13;93604.93;;;16.00;83.31
5777;BME280;2914;42.668;23.346;2023-04-25T09:53:44;93601.43;;;15.92;84.93
5777;BME280;2914;42.668;23.346;2023-04-25T09:58:54;93593.03;;;15.54;87.62
5777;BME280;2914;42.668;23.346;2023-04-25T10:01:24;93596.42;;;15.58;88.15
5777;BME280;2914;42.668;23.346;2023-04-25T10:03:56;93598.96;;;15.56;88.43
5777;BME280;2914;42.668;23.346;2023-04-25T10:06:26;93603.27;;;15.57;87.03
5777;BME280;2914;42.668;23.346;2023-04-25T10:08:57;93604.19;;;15.42;86.70
5777;BME280;2914;42.668;23.346;2023-04-25T10:11:27;93602.49;;;15.46;88.71
5777;BME280;2914;42.668;23.346;2023-04-25T10:16:41;93599.12;;;15.65;88.92
5777;BME280;2914;42.668;23.346;2023-04-25T10:19:11;93599.93;;;15.66;88.38
5777;BME280;2914;42.668;23.346;2023-04-25T10:21:46;93621.96;;;15.77;87.65
5777;BME280;2914;42.668;23.346;2023-04-25T10:24:15;93615.31;;;15.70;88.80
5777;BME280;2914;42.668;23.346;2023-04-25T10:29:31;93608.67;;;15.24;73.25
5777;BME280;2914;42.668;23.346;2023-04-25T10:32:00;93600.16;;;15.36;80.96
5777;BME280;2914;42.668;23.346;2023-04-25T10:34:40;93588.41;;;15.52;73.75
5777;BME280;2914;42.668;23.346;2023-04-25T10:39:51;93587.27;;;16.09;73.96
5777;BME280;2914;42.668;23.346;2023-04-25T10:42:21;93589.97;;;16.23;70.26
5777;BME280;2914;42.668;23.346;2023-04-25T10:45:04;93581.83;;;16.38;70.90
5777;BME280;2914;42.668;23.346;2023-04-25T10:47:36;93605.22;;;16.62;69.80
5777;BME280;2914;42.668;23.346;2023-04-25T10:50:09;93598.06;;;16.76;72.25
5777;BME280;2914;42.668;23.346;2023-04-25T10:52:40;93593.64;;;16.73;73.37
5777;BME280;2914;42.668;23.346;2023-04-25T10:55:09;93594.97;;;16.73;73.87
5777;BME280;2914;42.668;23.346;2023-04-25T11:00:20;93592.81;;;16.59;70.25
5777;BME280;2914;42.668;23.346;2023-04-25T11:05:32;93590.35;;;16.57;69.75
5777;BME280;2914;42.668;23.346;2023-04-25T11:08:02;93585.11;;;16.47;70.18
5777;BME280;2914;42.668;23.346;2023-04-25T11:10:32;93589.83;;;16.44;67.52
5777;BME280;2914;42.668;23.346;2023-04-25T11:13:02;93579.38;;;16.50;70.58
5777;BME280;2914;42.668;23.346;2023-04-25T11:15:32;93579.70;;;16.57;70.88
5777;BME280;2914;42.668;23.346;2023-04-25T11:18:01;93580.42;;;16.62;69.39
5777;BME280;2914;42.668;23.346;2023-04-25T11:20:30;93572.86;;;16.66;67.30
5777;BME280;2914;42.668;23.346;2023-04-25T11:22:59;93582.28;;;16.68;63.66
5777;BME280;2914;42.668;23.346;2023-04-25T11:25:29;93588.81;;;16.59;60.68
5777;BME280;2914;42.668;23.346;2023-04-25T11:27:59;93585.11;;;16.47;67.07
5777;BME280;2914;42.668;23.346;2023-04-25T11:30:28;93587.90;;;16.56;69.85
5777;BME280;2914;42.668;23.346;2023-04-25T11:32:58;93582.75;;;16.41;72.67
5777;BME280;2914;42.668;23.346;2023-04-25T11:35:30;93577.34;;;16.52;73.09
5777;BME280;2914;42.668;23.346;2023-04-25T11:40:44;93585.44;;;16.54;74.04
5777;BME280;2914;42.668;23.346;2023-04-25T11:43:15;93580.52;;;16.44;73.37
5777;BME280;2914;42.668;23.346;2023-04-25T11:45:49;93587.64;;;16.37;74.78
5777;BME280;2914;42.668;23.346;2023-04-25T11:48:22;93599.22;;;16.34;76.23
5777;BME280;2914;42.668;23.346;2023-04-25T11:53:30;93615.97;;;15.97;69.62
5777;BME280;2914;42.668;23.346;2023-04-25T11:56:00;93609.86;;;15.85;70.88
5777;BME280;2914;42.668;23.346;2023-04-25T11:58:30;93602.59;;;15.66;72.38
5777;BME280;2914;42.668;23.346;2023-04-25T12:01:12;93591.78;;;15.50;76.85
5777;BME280;2914;42.668;23.346;2023-04-25T12:03:47;93592.91;;;15.34;78.43
5777;BME280;2914;42.668;23.346;2023-04-25T12:06:19;93573.73;;;15.21;78.57
5777;BME280;2914;42.668;23.346;2023-04-25T12:11:42;93568.03;;;15.41;76.69
5777;BME280;2914;42.668;23.346;2023-04-25T12:14:11;93561.63;;;15.53;77.97
5777;BME280;2914;42.668;23.346;2023-04-25T12:16:45;93567.91;;;15.63;74.13
5777;BME280;2914;42.668;23.346;2023-04-25T12:19:15;93572.73;;;15.64;73.42
5777;BME280;2914;42.668;23.346;2023-04-25T12:21:45;93567.86;;;15.32;75.63
5777;BME280;2914;42.668;23.346;2023-04-25T12:24:16;93566.78;;;15.37;76.51
5777;BME280;2914;42.668;23.346;2023-04-25T12:26:50;93558.84;;;15.26;77.12
5777;BME280;2914;42.668;23.346;2023-04-25T12:29:21;93545.37;;;15.00;76.02
5777;BME280;2914;42.668;23.346;2023-04-25T12:32:08;93550.86;;;15.09;82.31
5777;BME280;2914;42.668;23.346;2023-04-25T12:34:43;93557.03;;;15.34;79.94
5777;BME280;2914;42.668;23.346;2023-04-25T12:37:13;93560.66;;;15.43;78.10
5777;BME280;2914;42.668;23.346;2023-04-25T12:39:51;93573.71;;;15.56;77.66
5777;BME280;2914;42.668;23.346;2023-04-25T12:42:20;93591.99;;;15.55;78.79
5777;BME280;2914;42.668;23.346;2023-04-25T12:44:49;93607.66;;;15.25;84.26
5777;BME280;2914;42.668;23.346;2023-04-25T12:47:18;93612.24;;;15.21;87.10
5777;BME280;2914;42.668;23.346;2023-04-25T12:49:47;93623.89;;;15.09;89.26
5777;BME280;2914;42.668;23.346;2023-04-25T12:55:08;93622.76;;;15.07;89.67
5777;BME280;2914;42.668;23.346;2023-04-25T12:57:37;93621.78;;;14.87;90.51
5777;BME280;2914;42.668;23.346;2023-04-25T13:00:11;93625.81;;;14.93;92.33
5777;BME280;2914;42.668;23.346;2023-04-25T13:02:57;93631.25;;;14.96;92.56
5777;BME280;2914;42.668;23.346;2023-04-25T13:05:30;93632.00;;;14.90;95.28
5777;BME280;2914;42.668;23.346;2023-04-25T13:07:59;93629.80;;;14.83;94.56
5777;BME280;2914;42.668;23.346;2023-04-25T13:10:30;93633.08;;;14.85;95.93
5777;BME280;2914;42.668;23.346;2023-04-25T13:13:01;93638.84;;;14.78;97.37
5777;BME280;2914;42.668;23.346;2023-04-25T13:15:33;93635.38;;;14.66;98.98
5777;BME280;2914;42.668;23.346;2023-04-25T13:18:03;93630.81;;;14.71;99.03
5777;BME280;2914;42.668;23.346;2023-04-25T13:20:32;93628.28;;;14.73;98.42
5777;BME280;2914;42.668;23.346;2023-04-25T13:23:02;93627.34;;;14.70;98.72
5777;BME280;2914;42.668;23.346;2023-04-25T13:25:31;93629.97;;;14.59;97.43
5777;BME280;2914;42.668;23.346;2023-04-25T13:28:01;93626.55;;;14.44;97.33
5777;BME280;2914;42.668;23.346;2023-04-25T13:30:32;93623.10;;;14.29;99.10
5777;BME280;2914;42.668;23.346;2023-04-25T13:33:01;93628.41;;;14.29;99.76
5777;BME280;2914;42.668;23.346;2023-04-25T13:38:09;93620.84;;;13.89;100.00
5777;BME280;2914;42.668;23.346;2023-04-25T13:40:38;93630.31;;;13.72;100.00
5777;BME280;2914;42.668;23.346;2023-04-25T13:43:07;93634.25;;;13.62;100.00
5777;BME280;2914;42.668;23.346;2023-04-25T13:45:36;93629.80;;;13.58;100.00
5777;BME280;2914;42.668;23.346;2023-04-25T13:48:05;93624.50;;;13.58;100.00
5777;BME280;2914;42.668;23.346;2023-04-25T13:50:36;93624.27;;;13.64;100.00
5777;BME280;2914;42.668;23.346;2023-04-25T13:55:43;93616.41;;;13.55;100.00
5777;BME280;2914;42.668;23.346;2023-04-25T14:00:56;93604.77;;;13.61;100.00
5777;BME280;2914;42.668;23.346;2023-04-25T14:03:27;93591.44;;;13.54;100.00
5777;BME280;2914;42.668;23.346;2023-04-25T14:05:57;93598.86;;;13.69;100.00
5777;BME280;2914;42.668;23.346;2023-04-25T14:08:28;93592.35;;;13.87;100.00
5777;BME280;2914;42.668;23.346;2023-04-25T14:11:01;93589.10;;;14.06;100.00
5777;BME280;2914;42.668;23.346;2023-04-25T14:13:32;93586.05;;;14.14;100.00
5777;BME280;2914;42.668;23.346;2023-04-25T14:16:05;93581.70;;;14.28;100.00
5777;BME280;2914;42.668;23.346;2023-04-25T14:18:36;93583.37;;;14.24;100.00
5777;BME280;2914;42.668;23.346;2023-04-25T14:21:05;93581.80;;;14.41;100.00